sensor_id;sensor_type;location;lat;lon;timestamp;P1;durP1;ratioP1;P2;durP2;ratioP2
43710;SDS011;29309;42.682;23.372;2023-01-28T00:00:51;5.47;;;3.30;;
43710;SDS011;29309;42.682;23.372;2023-01-28T00:03:17;12.10;;;4.22;;
43710;SDS011;29309;42.682;23.372;2023-01-28T00:05:43;5.78;;;3.95;;
43710;SDS011;29309;42.682;23.372;2023-01-28T00:08:08;6.07;;;4.10;;
43710;SDS011;29309;42.682;23.372;2023-01-28T00:10:35;12.27;;;4.55;;
43710;SDS011;29309;42.682;23.372;2023-01-28T00:13:03;7.70;;;4.20;;
43710;SDS011;29309;42.682;23.372;2023-01-28T00:15:30;8.38;;;4.00;;
43710;SDS011;29309;42.682;23.372;2023-01-28T00:17:55;7.28;;;4.35;;
43710;SDS011;29309;42.682;23.372;2023-01-28T00:20:20;7.35;;;3.58;;
43710;SDS011;29309;42.682;23.372;2023-01-28T00:22:46;7.38;;;4.10;;
43710;SDS011;29309;42.682;23.372;2023-01-28T00:25:13;7.03;;;4.20;;
43710;SDS011;29309;42.682;23.372;2023-01-28T00:27:39;5.85;;;3.88;;
43710;SDS011;29309;42.682;23.372;2023-01-28T00:30:04;7.05;;;4.57;;
43710;SDS011;29309;42.682;23.372;2023-01-28T00:32:31;6.82;;;3.30;;
43710;SDS011;29309;42.682;23.372;2023-01-28T00:34:56;7.45;;;3.97;;
43710;SDS011;29309;42.682;23.372;2023-01-28T00:37:22;6.65;;;3.50;;
43710;SDS011;29309;42.682;23.372;2023-01-28T00:39:48;7.45;;;3.65;;
43710;SDS011;29309;42.682;23.372;2023-01-28T00:42:13;10.30;;;4.10;;
43710;SDS011;29309;42.682;23.372;2023-01-28T00:44:39;6.63;;;3.72;;
43710;SDS011;29309;42.682;23.372;2023-01-28T00:47:05;5.55;;;3.35;;
43710;SDS011;29309;42.682;23.372;2023-01-28T00:49:30;6.18;;;4.15;;
43710;SDS011;29309;42.682;23.372;2023-01-28T00:51:56;6.20;;;3.72;;
43710;SDS011;29309;42.682;23.372;2023-01-28T00:54:21;4.90;;;3.42;;
43710;SDS011;29309;42.682;23.372;2023-01-28T00:56:46;8.38;;;3.53;;
43710;SDS011;29309;42.682;23.372;2023-01-28T00:59:12;5.68;;;3.53;;
43710;SDS011;29309;42.682;23.372;2023-01-28T01:01:38;6.57;;;4.07;;
43710;SDS011;29309;42.682;23.372;2023-01-28T01:04:03;4.97;;;3.33;;
43710;SDS011;29309;42.682;23.372;2023-01-28T01:06:30;7.50;;;4.07;;
43710;SDS011;29309;42.682;23.372;2023-01-28T01:08:57;5.50;;;3.83;;
43710;SDS011;29309;42.682;23.372;2023-01-28T01:11:23;7.10;;;4.28;;
43710;SDS011;29309;42.682;23.372;2023-01-28T01:13:58;7.95;;;4.53;;
43710;SDS011;29309;42.682;23.372;2023-01-28T01:16:28;7.97;;;4.35;;
43710;SDS011;29309;42.682;23.372;2023-01-28T01:18:56;7.40;;;4.25;;
43710;SDS011;29309;42.682;23.372;2023-01-28T01:21:24;9.13;;;4.68;;
43710;SDS011;29309;42.682;23.372;2023-01-28T01:23:51;11.43;;;4.75;;
43710;SDS011;29309;42.682;23.372;2023-01-28T01:26:17;7.18;;;3.80;;
43710;SDS011;29309;42.682;23.372;2023-01-28T01:28:43;8.65;;;5.28;;
43710;SDS011;29309;42.682;23.372;2023-01-28T01:31:13;9.43;;;5.30;;
43710;SDS011;29309;42.682;23.372;2023-01-28T01:33:41;8.48;;;4.63;;
43710;SDS011;29309;42.682;23.372;2023-01-28T01:36:09;9.50;;;5.28;;
43710;SDS011;29309;42.682;23.372;2023-01-28T01:38:35;8.32;;;5.20;;
43710;SDS011;29309;42.682;23.372;2023-01-28T01:41:02;8.35;;;5.28;;
43710;SDS011;29309;42.682;23.372;2023-01-28T01:46:40;8.30;;;5.00;;
43710;SDS011;29309;42.682;23.372;2023-01-28T01:51:41;7.53;;;4.40;;
43710;SDS011;29309;42.682;23.372;2023-01-28T01:54:10;7.63;;;4.78;;
43710;SDS011;29309;42.682;23.372;2023-01-28T01:56:37;10.57;;;4.53;;
43710;SDS011;29309;42.682;23.372;2023-01-28T01:59:08;7.00;;;4.57;;
43710;SDS011;29309;42.682;23.372;2023-01-28T02:01:36;8.15;;;4.95;;
43710;SDS011;29309;42.682;23.372;2023-01-28T02:04:13;7.63;;;4.95;;
43710;SDS011;29309;42.682;23.372;2023-01-28T02:06:44;7.88;;;4.72;;
43710;SDS011;29309;42.682;23.372;2023-01-28T02:09:30;8.43;;;4.93;;
43710;SDS011;29309;42.682;23.372;2023-01-28T02:12:02;9.88;;;5.10;;
43710;SDS011;29309;42.682;23.372;2023-01-28T02:14:32;8.82;;;5.03;;
43710;SDS011;29309;42.682;23.372;2023-01-28T02:17:01;7.60;;;4.60;;
43710;SDS011;29309;42.682;23.372;2023-01-28T02:19:35;7.72;;;4.93;;
43710;SDS011;29309;42.682;23.372;2023-01-28T02:22:05;7.13;;;4.50;;
43710;SDS011;29309;42.682;23.372;2023-01-28T02:30:23;8.20;;;4.50;;
43710;SDS011;29309;42.682;23.372;2023-01-28T02:38:19;5.97;;;3.70;;
43710;SDS011;29309;42.682;23.372;2023-01-28T02:40:51;7.88;;;4.35;;
43710;SDS011;29309;42.682;23.372;2023-01-28T02:46:20;8.55;;;4.32;;
43710;SDS011;29309;42.682;23.372;2023-01-28T02:49:17;7.15;;;3.75;;
43710;SDS011;29309;42.682;23.372;2023-01-28T02:52:01;9.73;;;4.53;;
43710;SDS011;29309;42.682;23.372;2023-01-28T02:57:02;8.68;;;4.25;;
43710;SDS011;29309;42.682;23.372;2023-01-28T02:59:48;6.85;;;3.92;;
43710;SDS011;29309;42.682;23.372;2023-01-28T03:02:30;7.38;;;4.13;;
43710;SDS011;29309;42.682;23.372;2023-01-28T03:05:06;4.50;;;3.42;;
43710;SDS011;29309;42.682;23.372;2023-01-28T03:07:44;7.55;;;4.50;;
43710;SDS011;29309;42.682;23.372;2023-01-28T03:10:11;7.78;;;4.78;;
43710;SDS011;29309;42.682;23.372;2023-01-28T03:12:42;6.03;;;3.80;;
43710;SDS011;29309;42.682;23.372;2023-01-28T03:15:30;5.45;;;3.72;;
43710;SDS011;29309;42.682;23.372;2023-01-28T03:18:31;6.50;;;4.00;;
43710;SDS011;29309;42.682;23.372;2023-01-28T03:21:24;6.53;;;3.97;;
43710;SDS011;29309;42.682;23.372;2023-01-28T03:24:13;7.38;;;3.88;;
43710;SDS011;29309;42.682;23.372;2023-01-28T03:27:08;6.80;;;3.85;;
43710;SDS011;29309;42.682;23.372;2023-01-28T03:29:57;5.90;;;3.60;;
43710;SDS011;29309;42.682;23.372;2023-01-28T03:32:44;6.25;;;3.60;;
43710;SDS011;29309;42.682;23.372;2023-01-28T03:35:30;6.80;;;4.15;;
43710;SDS011;29309;42.682;23.372;2023-01-28T03:38:16;5.90;;;3.25;;
43710;SDS011;29309;42.682;23.372;2023-01-28T03:40:56;7.63;;;3.67;;
43710;SDS011;29309;42.682;23.372;2023-01-28T03:43:24;20.33;;;4.50;;
43710;SDS011;29309;42.682;23.372;2023-01-28T03:45:50;6.07;;;3.47;;
43710;SDS011;29309;42.682;23.372;2023-01-28T03:48:19;6.63;;;3.70;;
43710;SDS011;29309;42.682;23.372;2023-01-28T03:50:47;10.18;;;4.03;;
43710;SDS011;29309;42.682;23.372;2023-01-28T03:53:13;8.02;;;4.72;;
43710;SDS011;29309;42.682;23.372;2023-01-28T03:55:40;9.80;;;5.13;;
43710;SDS011;29309;42.682;23.372;2023-01-28T03:58:06;7.53;;;4.30;;
43710;SDS011;29309;42.682;23.372;2023-01-28T04:00:32;8.73;;;4.50;;
43710;SDS011;29309;42.682;23.372;2023-01-28T04:03:01;8.52;;;4.68;;
43710;SDS011;29309;42.682;23.372;2023-01-28T04:05:39;10.15;;;5.18;;
43710;SDS011;29309;42.682;23.372;2023-01-28T04:08:07;7.20;;;4.72;;
43710;SDS011;29309;42.682;23.372;2023-01-28T04:10:32;7.28;;;4.20;;
43710;SDS011;29309;42.682;23.372;2023-01-28T04:12:57;6.07;;;4.18;;
43710;SDS011;29309;42.682;23.372;2023-01-28T04:15:23;4.57;;;3.50;;
43710;SDS011;29309;42.682;23.372;2023-01-28T04:17:48;6.93;;;3.90;;
43710;SDS011;29309;42.682;23.372;2023-01-28T04:20:14;6.88;;;3.90;;
43710;SDS011;29309;42.682;23.372;2023-01-28T04:22:39;7.22;;;4.43;;
43710;SDS011;29309;42.682;23.372;2023-01-28T04:25:05;8.02;;;3.72;;
43710;SDS011;29309;42.682;23.372;2023-01-28T04:27:32;7.25;;;4.30;;
43710;SDS011;29309;42.682;23.372;2023-01-28T04:29:57;5.68;;;4.28;;
43710;SDS011;29309;42.682;23.372;2023-01-28T04:32:23;9.82;;;4.40;;
43710;SDS011;29309;42.682;23.372;2023-01-28T04:34:48;8.00;;;4.65;;
43710;SDS011;29309;42.682;23.372;2023-01-28T04:37:13;8.25;;;4.50;;
43710;SDS011;29309;42.682;23.372;2023-01-28T04:39:39;6.65;;;4.35;;
43710;SDS011;29309;42.682;23.372;2023-01-28T04:42:04;9.23;;;4.30;;
43710;SDS011;29309;42.682;23.372;2023-01-28T04:44:29;6.93;;;3.85;;
43710;SDS011;29309;42.682;23.372;2023-01-28T04:46:55;7.22;;;4.07;;
43710;SDS011;29309;42.682;23.372;2023-01-28T04:49:20;8.38;;;3.78;;
43710;SDS011;29309;42.682;23.372;2023-01-28T04:51:46;6.20;;;3.63;;
43710;SDS011;29309;42.682;23.372;2023-01-28T04:54:11;7.28;;;3.92;;
43710;SDS011;29309;42.682;23.372;2023-01-28T04:56:36;10.98;;;3.95;;
43710;SDS011;29309;42.682;23.372;2023-01-28T04:59:02;7.80;;;4.53;;
43710;SDS011;29309;42.682;23.372;2023-01-28T05:01:27;5.78;;;3.58;;
43710;SDS011;29309;42.682;23.372;2023-01-28T05:03:53;5.68;;;3.60;;
43710;SDS011;29309;42.682;23.372;2023-01-28T05:06:19;6.18;;;3.95;;
43710;SDS011;29309;42.682;23.372;2023-01-28T05:08:44;6.55;;;3.78;;
43710;SDS011;29309;42.682;23.372;2023-01-28T05:11:10;7.93;;;4.75;;
43710;SDS011;29309;42.682;23.372;2023-01-28T05:13:37;7.32;;;4.28;;
43710;SDS011;29309;42.682;23.372;2023-01-28T05:16:04;6.18;;;4.03;;
43710;SDS011;29309;42.682;23.372;2023-01-28T05:18:30;6.20;;;4.07;;
43710;SDS011;29309;42.682;23.372;2023-01-28T05:20:56;8.27;;;4.47;;
43710;SDS011;29309;42.682;23.372;2023-01-28T05:23:22;6.97;;;4.47;;
43710;SDS011;29309;42.682;23.372;2023-01-28T05:25:47;6.25;;;4.15;;
43710;SDS011;29309;42.682;23.372;2023-01-28T05:28:13;9.18;;;4.85;;
43710;SDS011;29309;42.682;23.372;2023-01-28T05:30:38;8.20;;;4.00;;
43710;SDS011;29309;42.682;23.372;2023-01-28T05:33:04;11.20;;;4.57;;
43710;SDS011;29309;42.682;23.372;2023-01-28T05:35:29;8.63;;;4.30;;
43710;SDS011;29309;42.682;23.372;2023-01-28T05:37:55;7.72;;;4.28;;
43710;SDS011;29309;42.682;23.372;2023-01-28T05:40:20;6.32;;;3.58;;
43710;SDS011;29309;42.682;23.372;2023-01-28T05:42:46;8.15;;;4.05;;
43710;SDS011;29309;42.682;23.372;2023-01-28T05:45:11;7.65;;;4.22;;
43710;SDS011;29309;42.682;23.372;2023-01-28T05:47:37;7.43;;;4.50;;
43710;SDS011;29309;42.682;23.372;2023-01-28T05:50:03;8.38;;;3.90;;
43710;SDS011;29309;42.682;23.372;2023-01-28T05:52:29;8.80;;;4.63;;
43710;SDS011;29309;42.682;23.372;2023-01-28T05:54:55;11.07;;;4.75;;
43710;SDS011;29309;42.682;23.372;2023-01-28T05:57:20;5.93;;;4.10;;
43710;SDS011;29309;42.682;23.372;2023-01-28T05:59:45;7.70;;;4.13;;
43710;SDS011;29309;42.682;23.372;2023-01-28T06:02:11;7.50;;;4.63;;
43710;SDS011;29309;42.682;23.372;2023-01-28T06:04:36;5.60;;;3.85;;
43710;SDS011;29309;42.682;23.372;2023-01-28T06:07:03;8.43;;;4.75;;
43710;SDS011;29309;42.682;23.372;2023-01-28T06:09:28;7.68;;;4.22;;
43710;SDS011;29309;42.682;23.372;2023-01-28T06:11:54;6.45;;;4.40;;
43710;SDS011;29309;42.682;23.372;2023-01-28T06:14:19;9.00;;;5.15;;
43710;SDS011;29309;42.682;23.372;2023-01-28T06:16:45;5.65;;;4.13;;
43710;SDS011;29309;42.682;23.372;2023-01-28T06:22:05;8.73;;;4.65;;
43710;SDS011;29309;42.682;23.372;2023-01-28T06:24:30;8.85;;;5.15;;
43710;SDS011;29309;42.682;23.372;2023-01-28T06:26:55;9.75;;;5.65;;
43710;SDS011;29309;42.682;23.372;2023-01-28T06:29:21;8.63;;;5.45;;
43710;SDS011;29309;42.682;23.372;2023-01-28T06:31:47;8.30;;;4.72;;
43710;SDS011;29309;42.682;23.372;2023-01-28T06:34:12;8.73;;;4.68;;
43710;SDS011;29309;42.682;23.372;2023-01-28T06:36:37;8.98;;;5.20;;
43710;SDS011;29309;42.682;23.372;2023-01-28T06:39:03;8.15;;;4.60;;
43710;SDS011;29309;42.682;23.372;2023-01-28T06:41:29;8.00;;;4.40;;
43710;SDS011;29309;42.682;23.372;2023-01-28T06:43:54;6.78;;;4.00;;
43710;SDS011;29309;42.682;23.372;2023-01-28T06:46:20;8.80;;;4.70;;
43710;SDS011;29309;42.682;23.372;2023-01-28T06:48:46;9.15;;;4.90;;
43710;SDS011;29309;42.682;23.372;2023-01-28T06:51:11;6.90;;;4.25;;
43710;SDS011;29309;42.682;23.372;2023-01-28T06:53:36;8.98;;;4.85;;
43710;SDS011;29309;42.682;23.372;2023-01-28T06:56:02;8.02;;;4.95;;
43710;SDS011;29309;42.682;23.372;2023-01-28T06:58:28;9.23;;;4.93;;
43710;SDS011;29309;42.682;23.372;2023-01-28T07:00:53;9.43;;;4.47;;
43710;SDS011;29309;42.682;23.372;2023-01-28T07:03:19;7.43;;;5.10;;
43710;SDS011;29309;42.682;23.372;2023-01-28T07:05:44;7.95;;;5.13;;
43710;SDS011;29309;42.682;23.372;2023-01-28T07:08:10;8.38;;;5.13;;
43710;SDS011;29309;42.682;23.372;2023-01-28T07:10:35;8.57;;;4.90;;
43710;SDS011;29309;42.682;23.372;2023-01-28T07:13:01;8.95;;;5.53;;
43710;SDS011;29309;42.682;23.372;2023-01-28T07:15:27;11.38;;;5.82;;
43710;SDS011;29309;42.682;23.372;2023-01-28T07:17:53;10.13;;;5.63;;
43710;SDS011;29309;42.682;23.372;2023-01-28T07:20:18;11.85;;;5.80;;
43710;SDS011;29309;42.682;23.372;2023-01-28T07:22:44;12.30;;;5.90;;
43710;SDS011;29309;42.682;23.372;2023-01-28T07:25:10;9.63;;;5.85;;
43710;SDS011;29309;42.682;23.372;2023-01-28T07:27:37;10.25;;;5.50;;
43710;SDS011;29309;42.682;23.372;2023-01-28T07:30:03;11.43;;;6.30;;
43710;SDS011;29309;42.682;23.372;2023-01-28T07:32:29;11.25;;;5.43;;
43710;SDS011;29309;42.682;23.372;2023-01-28T07:34:54;10.57;;;6.43;;
43710;SDS011;29309;42.682;23.372;2023-01-28T07:37:19;12.02;;;5.88;;
43710;SDS011;29309;42.682;23.372;2023-01-28T07:39:45;10.13;;;5.55;;
43710;SDS011;29309;42.682;23.372;2023-01-28T07:42:11;8.65;;;4.60;;
43710;SDS011;29309;42.682;23.372;2023-01-28T07:44:37;9.88;;;6.05;;
43710;SDS011;29309;42.682;23.372;2023-01-28T07:47:03;12.30;;;6.07;;
43710;SDS011;29309;42.682;23.372;2023-01-28T07:49:29;10.00;;;5.57;;
43710;SDS011;29309;42.682;23.372;2023-01-28T07:51:55;9.38;;;6.07;;
43710;SDS011;29309;42.682;23.372;2023-01-28T07:54:20;9.65;;;5.63;;
43710;SDS011;29309;42.682;23.372;2023-01-28T07:56:46;10.65;;;5.88;;
43710;SDS011;29309;42.682;23.372;2023-01-28T07:59:11;10.63;;;5.80;;
43710;SDS011;29309;42.682;23.372;2023-01-28T08:01:37;11.35;;;5.97;;
43710;SDS011;29309;42.682;23.372;2023-01-28T08:04:02;10.77;;;5.85;;
43710;SDS011;29309;42.682;23.372;2023-01-28T08:06:28;10.80;;;6.25;;
43710;SDS011;29309;42.682;23.372;2023-01-28T08:08:53;13.02;;;6.00;;
43710;SDS011;29309;42.682;23.372;2023-01-28T08:11:19;10.07;;;6.00;;
43710;SDS011;29309;42.682;23.372;2023-01-28T08:13:45;10.43;;;5.78;;
43710;SDS011;29309;42.682;23.372;2023-01-28T08:16:12;10.90;;;6.38;;
43710;SDS011;29309;42.682;23.372;2023-01-28T08:18:37;10.43;;;5.47;;
43710;SDS011;29309;42.682;23.372;2023-01-28T08:21:03;9.60;;;5.43;;
43710;SDS011;29309;42.682;23.372;2023-01-28T08:23:29;9.10;;;6.18;;
43710;SDS011;29309;42.682;23.372;2023-01-28T08:25:56;10.90;;;6.63;;
43710;SDS011;29309;42.682;23.372;2023-01-28T08:28:23;11.02;;;7.00;;
43710;SDS011;29309;42.682;23.372;2023-01-28T08:30:48;12.45;;;6.90;;
43710;SDS011;29309;42.682;23.372;2023-01-28T08:33:14;18.48;;;7.22;;
43710;SDS011;29309;42.682;23.372;2023-01-28T08:35:41;11.95;;;6.47;;
43710;SDS011;29309;42.682;23.372;2023-01-28T08:38:07;10.60;;;5.38;;
43710;SDS011;29309;42.682;23.372;2023-01-28T08:40:33;10.13;;;5.75;;
43710;SDS011;29309;42.682;23.372;2023-01-28T08:42:59;11.20;;;6.10;;
43710;SDS011;29309;42.682;23.372;2023-01-28T08:45:25;10.48;;;6.03;;
43710;SDS011;29309;42.682;23.372;2023-01-28T08:47:53;9.75;;;5.75;;
43710;SDS011;29309;42.682;23.372;2023-01-28T08:50:21;11.13;;;5.30;;
43710;SDS011;29309;42.682;23.372;2023-01-28T08:52:48;12.98;;;6.38;;
43710;SDS011;29309;42.682;23.372;2023-01-28T08:55:19;10.40;;;5.57;;
43710;SDS011;29309;42.682;23.372;2023-01-28T08:57:45;11.02;;;6.55;;
43710;SDS011;29309;42.682;23.372;2023-01-28T09:00:10;11.85;;;6.63;;
43710;SDS011;29309;42.682;23.372;2023-01-28T09:02:36;11.27;;;6.43;;
43710;SDS011;29309;42.682;23.372;2023-01-28T09:05:02;12.60;;;5.82;;
43710;SDS011;29309;42.682;23.372;2023-01-28T09:07:29;8.95;;;5.30;;
43710;SDS011;29309;42.682;23.372;2023-01-28T09:09:54;9.05;;;5.25;;
43710;SDS011;29309;42.682;23.372;2023-01-28T09:12:20;10.65;;;5.63;;
43710;SDS011;29309;42.682;23.372;2023-01-28T09:14:45;9.73;;;5.45;;
43710;SDS011;29309;42.682;23.372;2023-01-28T09:17:11;8.32;;;5.07;;
43710;SDS011;29309;42.682;23.372;2023-01-28T09:19:36;9.93;;;5.70;;
43710;SDS011;29309;42.682;23.372;2023-01-28T09:22:02;10.80;;;5.38;;
43710;SDS011;29309;42.682;23.372;2023-01-28T09:24:28;9.63;;;5.68;;
43710;SDS011;29309;42.682;23.372;2023-01-28T09:27:06;10.80;;;6.03;;
43710;SDS011;29309;42.682;23.372;2023-01-28T09:29:34;9.80;;;5.72;;
43710;SDS011;29309;42.682;23.372;2023-01-28T09:31:59;12.48;;;6.22;;
43710;SDS011;29309;42.682;23.372;2023-01-28T09:34:25;9.65;;;5.00;;
43710;SDS011;29309;42.682;23.372;2023-01-28T09:36:51;10.55;;;5.40;;
43710;SDS011;29309;42.682;23.372;2023-01-28T09:39:17;10.18;;;6.20;;
43710;SDS011;29309;42.682;23.372;2023-01-28T09:47:46;11.32;;;5.40;;
43710;SDS011;29309;42.682;23.372;2023-01-28T09:53:15;11.98;;;5.20;;
43710;SDS011;29309;42.682;23.372;2023-01-28T09:55:59;10.00;;;5.60;;
43710;SDS011;29309;42.682;23.372;2023-01-28T09:58:27;10.48;;;5.88;;
43710;SDS011;29309;42.682;23.372;2023-01-28T10:12:16;10.82;;;6.40;;
43710;SDS011;29309;42.682;23.372;2023-01-28T10:20:28;12.02;;;6.57;;
43710;SDS011;29309;42.682;23.372;2023-01-28T10:25:31;13.45;;;6.45;;
43710;SDS011;29309;42.682;23.372;2023-01-28T10:27:59;11.70;;;6.57;;
43710;SDS011;29309;42.682;23.372;2023-01-28T10:30:30;15.68;;;8.23;;
43710;SDS011;29309;42.682;23.372;2023-01-28T10:33:04;13.98;;;7.70;;
43710;SDS011;29309;42.682;23.372;2023-01-28T10:35:40;17.13;;;7.82;;
43710;SDS011;29309;42.682;23.372;2023-01-28T10:38:07;12.90;;;7.35;;
43710;SDS011;29309;42.682;23.372;2023-01-28T10:40:37;14.07;;;7.45;;
43710;SDS011;29309;42.682;23.372;2023-01-28T10:43:05;10.95;;;6.13;;
43710;SDS011;29309;42.682;23.372;2023-01-28T10:45:54;10.32;;;5.97;;
43710;SDS011;29309;42.682;23.372;2023-01-28T10:48:25;12.00;;;6.15;;
43710;SDS011;29309;42.682;23.372;2023-01-28T10:50:57;11.02;;;6.35;;
43710;SDS011;29309;42.682;23.372;2023-01-28T10:53:37;10.00;;;6.43;;
43710;SDS011;29309;42.682;23.372;2023-01-28T10:56:06;13.07;;;6.97;;
43710;SDS011;29309;42.682;23.372;2023-01-28T10:58:35;11.95;;;6.40;;
43710;SDS011;29309;42.682;23.372;2023-01-28T11:01:10;10.13;;;6.32;;
43710;SDS011;29309;42.682;23.372;2023-01-28T11:03:36;12.45;;;7.13;;
43710;SDS011;29309;42.682;23.372;2023-01-28T11:06:03;13.77;;;6.40;;
43710;SDS011;29309;42.682;23.372;2023-01-28T11:08:29;12.80;;;6.18;;
43710;SDS011;29309;42.682;23.372;2023-01-28T11:10:55;11.25;;;6.28;;
43710;SDS011;29309;42.682;23.372;2023-01-28T11:13:22;10.35;;;6.38;;
43710;SDS011;29309;42.682;23.372;2023-01-28T11:15:57;12.80;;;7.00;;
43710;SDS011;29309;42.682;23.372;2023-01-28T11:18:25;9.93;;;5.93;;
43710;SDS011;29309;42.682;23.372;2023-01-28T11:20:58;12.20;;;6.22;;
43710;SDS011;29309;42.682;23.372;2023-01-28T11:23:30;10.32;;;5.97;;
43710;SDS011;29309;42.682;23.372;2023-01-28T11:29:03;14.65;;;6.28;;
43710;SDS011;29309;42.682;23.372;2023-01-28T11:31:33;10.85;;;5.80;;
43710;SDS011;29309;42.682;23.372;2023-01-28T11:34:05;10.73;;;6.40;;
43710;SDS011;29309;42.682;23.372;2023-01-28T11:36:32;8.82;;;5.32;;
43710;SDS011;29309;42.682;23.372;2023-01-28T11:39:19;10.93;;;5.70;;
43710;SDS011;29309;42.682;23.372;2023-01-28T11:41:46;10.77;;;5.88;;
43710;SDS011;29309;42.682;23.372;2023-01-28T11:44:16;8.82;;;5.28;;
43710;SDS011;29309;42.682;23.372;2023-01-28T12:06:08;7.32;;;4.88;;
43710;SDS011;29309;42.682;23.372;2023-01-28T12:08:48;9.48;;;5.80;;
43710;SDS011;29309;42.682;23.372;2023-01-28T12:14:29;10.15;;;5.72;;
43710;SDS011;29309;42.682;23.372;2023-01-28T12:17:08;10.60;;;5.95;;
43710;SDS011;29309;42.682;23.372;2023-01-28T12:30:43;11.32;;;6.05;;
43710;SDS011;29309;42.682;23.372;2023-01-28T12:41:17;11.75;;;6.80;;
43710;SDS011;29309;42.682;23.372;2023-01-28T12:46:52;11.55;;;6.60;;
43710;SDS011;29309;42.682;23.372;2023-01-28T12:52:08;13.27;;;6.63;;
43710;SDS011;29309;42.682;23.372;2023-01-28T12:54:59;14.35;;;6.63;;
43710;SDS011;29309;42.682;23.372;2023-01-28T12:57:29;10.43;;;6.60;;
43710;SDS011;29309;42.682;23.372;2023-01-28T13:02:48;16.42;;;7.95;;
43710;SDS011;29309;42.682;23.372;2023-01-28T13:05:21;14.25;;;6.38;;
43710;SDS011;29309;42.682;23.372;2023-01-28T13:08:00;13.85;;;6.60;;
43710;SDS011;29309;42.682;23.372;2023-01-28T13:10:43;9.07;;;5.70;;
43710;SDS011;29309;42.682;23.372;2023-01-28T13:15:59;12.80;;;6.75;;
43710;SDS011;29309;42.682;23.372;2023-01-28T13:20:54;8.23;;;5.90;;
43710;SDS011;29309;42.682;23.372;2023-01-28T13:25:48;12.13;;;5.97;;
43710;SDS011;29309;42.682;23.372;2023-01-28T13:28:29;11.30;;;6.13;;
43710;SDS011;29309;42.682;23.372;2023-01-28T13:31:04;11.80;;;6.53;;
43710;SDS011;29309;42.682;23.372;2023-01-28T13:33:33;13.48;;;7.03;;
43710;SDS011;29309;42.682;23.372;2023-01-28T13:36:13;12.23;;;6.22;;
43710;SDS011;29309;42.682;23.372;2023-01-28T13:38:48;12.32;;;6.70;;
43710;SDS011;29309;42.682;23.372;2023-01-28T13:41:47;12.93;;;6.30;;
43710;SDS011;29309;42.682;23.372;2023-01-28T13:46:57;12.60;;;6.35;;
43710;SDS011;29309;42.682;23.372;2023-01-28T13:49:38;8.65;;;5.30;;
43710;SDS011;29309;42.682;23.372;2023-01-28T13:54:35;10.30;;;6.68;;
43710;SDS011;29309;42.682;23.372;2023-01-28T13:59:36;17.20;;;6.00;;
43710;SDS011;29309;42.682;23.372;2023-01-28T14:12:49;10.67;;;5.77;;
43710;SDS011;29309;42.682;23.372;2023-01-28T14:18:17;13.48;;;7.57;;
43710;SDS011;29309;42.682;23.372;2023-01-28T14:20:49;11.25;;;6.30;;
43710;SDS011;29309;42.682;23.372;2023-01-28T14:23:17;11.00;;;6.07;;
43710;SDS011;29309;42.682;23.372;2023-01-28T14:28:33;11.10;;;6.40;;
43710;SDS011;29309;42.682;23.372;2023-01-28T14:31:04;9.60;;;5.93;;
43710;SDS011;29309;42.682;23.372;2023-01-28T14:33:35;8.98;;;5.63;;
43710;SDS011;29309;42.682;23.372;2023-01-28T14:36:02;9.98;;;5.95;;
43710;SDS011;29309;42.682;23.372;2023-01-28T14:38:28;11.18;;;5.32;;
43710;SDS011;29309;42.682;23.372;2023-01-28T14:40:58;8.65;;;5.82;;
43710;SDS011;29309;42.682;23.372;2023-01-28T14:43:24;10.55;;;5.97;;
43710;SDS011;29309;42.682;23.372;2023-01-28T14:45:57;10.48;;;5.65;;
43710;SDS011;29309;42.682;23.372;2023-01-28T14:48:54;9.07;;;5.60;;
43710;SDS011;29309;42.682;23.372;2023-01-28T14:56:47;8.55;;;5.30;;
43710;SDS011;29309;42.682;23.372;2023-01-28T15:01:59;10.40;;;5.25;;
43710;SDS011;29309;42.682;23.372;2023-01-28T15:04:29;13.02;;;5.32;;
43710;SDS011;29309;42.682;23.372;2023-01-28T15:06:57;7.57;;;4.70;;
43710;SDS011;29309;42.682;23.372;2023-01-28T15:09:26;9.15;;;5.50;;
43710;SDS011;29309;42.682;23.372;2023-01-28T15:11:53;11.07;;;5.18;;
43710;SDS011;29309;42.682;23.372;2023-01-28T15:16:50;9.82;;;5.40;;
43710;SDS011;29309;42.682;23.372;2023-01-28T15:19:16;9.25;;;5.25;;
43710;SDS011;29309;42.682;23.372;2023-01-28T15:21:49;11.43;;;5.75;;
43710;SDS011;29309;42.682;23.372;2023-01-28T15:24:20;11.70;;;6.13;;
43710;SDS011;29309;42.682;23.372;2023-01-28T15:26:46;9.35;;;4.80;;
43710;SDS011;29309;42.682;23.372;2023-01-28T15:32:21;12.35;;;6.25;;
43710;SDS011;29309;42.682;23.372;2023-01-28T15:34:51;10.52;;;5.93;;
43710;SDS011;29309;42.682;23.372;2023-01-28T15:37:17;11.13;;;6.70;;
43710;SDS011;29309;42.682;23.372;2023-01-28T15:39:44;9.98;;;5.68;;
43710;SDS011;29309;42.682;23.372;2023-01-28T15:42:15;11.13;;;6.22;;
43710;SDS011;29309;42.682;23.372;2023-01-28T15:44:45;12.30;;;6.32;;
43710;SDS011;29309;42.682;23.372;2023-01-28T15:47:22;11.80;;;6.53;;
43710;SDS011;29309;42.682;23.372;2023-01-28T15:50:00;11.88;;;5.75;;
43710;SDS011;29309;42.682;23.372;2023-01-28T15:52:29;10.98;;;6.03;;
43710;SDS011;29309;42.682;23.372;2023-01-28T15:54:59;11.93;;;6.70;;
43710;SDS011;29309;42.682;23.372;2023-01-28T15:57:27;11.65;;;6.35;;
43710;SDS011;29309;42.682;23.372;2023-01-28T16:02:29;10.20;;;6.22;;
43710;SDS011;29309;42.682;23.372;2023-01-28T16:07:21;10.05;;;5.53;;
43710;SDS011;29309;42.682;23.372;2023-01-28T16:09:50;12.43;;;6.22;;
43710;SDS011;29309;42.682;23.372;2023-01-28T16:12:17;9.68;;;5.10;;
43710;SDS011;29309;42.682;23.372;2023-01-28T16:14:48;10.63;;;5.75;;
43710;SDS011;29309;42.682;23.372;2023-01-28T16:17:15;10.55;;;5.75;;
43710;SDS011;29309;42.682;23.372;2023-01-28T16:19:45;8.60;;;4.75;;
43710;SDS011;29309;42.682;23.372;2023-01-28T16:22:17;10.63;;;5.22;;
43710;SDS011;29309;42.682;23.372;2023-01-28T16:24:49;12.55;;;7.32;;
43710;SDS011;29309;42.682;23.372;2023-01-28T16:27:35;9.60;;;5.20;;
43710;SDS011;29309;42.682;23.372;2023-01-28T16:30:00;9.90;;;5.80;;
43710;SDS011;29309;42.682;23.372;2023-01-28T16:32:26;12.13;;;5.68;;
43710;SDS011;29309;42.682;23.372;2023-01-28T16:34:59;10.40;;;5.60;;
43710;SDS011;29309;42.682;23.372;2023-01-28T16:37:24;11.23;;;5.65;;
43710;SDS011;29309;42.682;23.372;2023-01-28T16:39:50;10.38;;;5.05;;
43710;SDS011;29309;42.682;23.372;2023-01-28T16:42:15;10.77;;;5.15;;
43710;SDS011;29309;42.682;23.372;2023-01-28T16:44:41;11.05;;;5.85;;
43710;SDS011;29309;42.682;23.372;2023-01-28T16:47:07;10.27;;;5.75;;
43710;SDS011;29309;42.682;23.372;2023-01-28T16:49:33;9.27;;;5.05;;
43710;SDS011;29309;42.682;23.372;2023-01-28T16:51:59;8.95;;;5.15;;
43710;SDS011;29309;42.682;23.372;2023-01-28T16:54:25;9.57;;;5.85;;
43710;SDS011;29309;42.682;23.372;2023-01-28T16:56:51;11.52;;;6.03;;
43710;SDS011;29309;42.682;23.372;2023-01-28T16:59:18;11.57;;;5.97;;
43710;SDS011;29309;42.682;23.372;2023-01-28T17:01:45;9.77;;;5.65;;
43710;SDS011;29309;42.682;23.372;2023-01-28T17:04:11;10.48;;;5.63;;
43710;SDS011;29309;42.682;23.372;2023-01-28T17:06:39;10.00;;;5.28;;
43710;SDS011;29309;42.682;23.372;2023-01-28T17:09:06;12.43;;;5.25;;
43710;SDS011;29309;42.682;23.372;2023-01-28T17:11:32;9.63;;;4.90;;
43710;SDS011;29309;42.682;23.372;2023-01-28T17:13:58;10.32;;;5.85;;
43710;SDS011;29309;42.682;23.372;2023-01-28T17:16:24;10.02;;;5.40;;